Rain radar more information rain snow radar


Visit our other weather sites:

Template documentation
and downloads

And another site



Nearby METAR Reports

   
KTIW - Tacoma, Washington, USA
Distance from station: W 7 mi
Updated: Jan 26 2021 6:53 pm
Light Rain, Overcast  
Light Rain, Overcast  
   Wind: Calm
Wind: Calm
Temperature: 37.4°F
Dew Point: 28.4°F
Humidity: 70%
Barometer: 29.44 inHg
Clouds: Overcast
Visibility: 10 mi
Cloud details: Overcast 762 m
KTIW 270253Z 00000KT 10SM -RA OVC025 03/M02 A2944 RMK AO2 RAB23 SLP973 P0000 60000 T00281022 50000
KTCM - Tacoma/Mc Chord, Washington, USA
Distance from station: S 9 mi
Updated: Jan 26 2021 11:56 am
NOT Current
Clear  
Clear  
   Wind: NE 5.8 mph
Wind: NE 5.8 mph
Temperature: 39.2°F
Wind Chill: 35.6°F
Dew Point: 24.8°F
Humidity: 56%
Barometer: 29.58 inHg
Clouds: Clear
Visibility: 10 mi
Cloud details: Clear m
KTCM 261956Z AUTO 05005KT 10SM CLR 04/M04 A2958 RMK AO2 SLP023 T00411037 $
KSEA - Seattle/Metro, Washington, USA
Distance from station: NNE 15 mi
Updated: Jan 26 2021 6:53 pm
Overcast  
Overcast  
   Wind: ESE 15 mph<br />Gust to 15 mph
Wind: ESE 15 mph
Gust to 15 mph
Temperature: 41°F
Wind Chill: 33.8°F
Dew Point: 24.8°F
Humidity: 53%
Barometer: 29.43 inHg
Clouds: Overcast
Visibility: 10 mi
Cloud details: Overcast 1280 m
KSEA 270253Z 12013G26KT 10SM OVC042 05/M04 A2943 RMK AO2 PK WND 12026/0248 SLP976 T00501044 56017
KBFI - Seattle/Boeing, Washington, USA
Distance from station: NNE 21 mi
Updated: Jan 26 2021 6:53 pm
Overcast  
Overcast  
   Wind: ESE 12.7 mph<br />Gust to 12.7 mph
Wind: ESE 12.7 mph
Gust to 12.7 mph
Temperature: 42.8°F
Wind Chill: 35.6°F
Dew Point: 21.2°F
Humidity: 42%
Barometer: 29.45 inHg
Clouds: Overcast
Visibility: 10 mi
Cloud details: Overcast 1280 m
KBFI 270253Z 12011G20KT 10SM OVC042 06/M06 A2945 RMK AO2 SLP973 T00611061 56016
KOLM - Olympia, Washington, USA
Distance from station: SW 29 mi
Updated: Jan 26 2021 6:54 pm
Light Rain, Overcast  
Light Rain, Overcast  
   Wind: Calm
Wind: Calm
Temperature: 37.4°F
Dew Point: 30.2°F
Humidity: 75%
Barometer: 29.41 inHg
Clouds: Overcast
Visibility: 10 mi
Cloud details: Mostly Cloudy 823 m,
Mostly Cloudy 1036 m,
Overcast 1250 m
KOLM 270254Z 00000KT 10SM -RA BKN027 BKN034 OVC041 03/M01 A2941 RMK AO2 SLP961 P0002 60002 T00281006 58008 $
 

Script developed by  Saratoga-weather.org Adapted for the template by  Weerstation Leuven

You find our weather info also at:

Weather Underground

WeatherlinkIP

Citizen Weather Observer Program (CWOP)

Equipment we use:

Weather-station
Davis VP2

Weather-program
Meteobridge

Provider
MDD Hosting

Davis VP2

Meteobridge

MDD Hosting